sensor_id;sensor_type;location;lat;lon;timestamp;P1;durP1;ratioP1;P2;durP2;ratioP2
3259;SDS011;22469;48.150;14.004;2023-02-05T00:01:33;3.43;;;3.23;;
3259;SDS011;22469;48.150;14.004;2023-02-05T00:04:00;3.77;;;3.47;;
3259;SDS011;22469;48.150;14.004;2023-02-05T00:06:28;3.97;;;3.67;;
3259;SDS011;22469;48.150;14.004;2023-02-05T00:08:55;3.07;;;2.97;;
3259;SDS011;22469;48.150;14.004;2023-02-05T00:11:23;3.60;;;3.30;;
3259;SDS011;22469;48.150;14.004;2023-02-05T00:13:51;3.80;;;3.50;;
3259;SDS011;22469;48.150;14.004;2023-02-05T00:16:19;3.40;;;3.17;;
3259;SDS011;22469;48.150;14.004;2023-02-05T00:18:49;3.60;;;3.40;;
3259;SDS011;22469;48.150;14.004;2023-02-05T00:21:18;3.63;;;3.33;;
3259;SDS011;22469;48.150;14.004;2023-02-05T00:23:47;4.13;;;3.93;;
3259;SDS011;22469;48.150;14.004;2023-02-05T00:26:16;3.03;;;2.83;;
3259;SDS011;22469;48.150;14.004;2023-02-05T00:28:43;3.30;;;3.10;;
3259;SDS011;22469;48.150;14.004;2023-02-05T00:31:12;3.10;;;3.00;;
3259;SDS011;22469;48.150;14.004;2023-02-05T00:33:42;3.60;;;3.40;;
3259;SDS011;22469;48.150;14.004;2023-02-05T00:36:11;3.27;;;3.03;;
3259;SDS011;22469;48.150;14.004;2023-02-05T00:38:40;4.40;;;3.53;;
3259;SDS011;22469;48.150;14.004;2023-02-05T00:41:09;3.43;;;3.10;;
3259;SDS011;22469;48.150;14.004;2023-02-05T00:43:37;3.70;;;3.30;;
3259;SDS011;22469;48.150;14.004;2023-02-05T00:46:05;7.63;;;4.50;;
3259;SDS011;22469;48.150;14.004;2023-02-05T00:48:35;4.90;;;4.33;;
3259;SDS011;22469;48.150;14.004;2023-02-05T00:51:02;4.10;;;3.77;;
3259;SDS011;22469;48.150;14.004;2023-02-05T00:53:29;6.73;;;4.70;;
3259;SDS011;22469;48.150;14.004;2023-02-05T00:55:57;5.63;;;5.13;;
3259;SDS011;22469;48.150;14.004;2023-02-05T00:58:24;4.67;;;4.27;;
3259;SDS011;22469;48.150;14.004;2023-02-05T01:00:51;3.87;;;3.63;;
3259;SDS011;22469;48.150;14.004;2023-02-05T01:03:19;5.10;;;4.60;;
3259;SDS011;22469;48.150;14.004;2023-02-05T01:05:46;5.90;;;4.30;;
3259;SDS011;22469;48.150;14.004;2023-02-05T01:08:14;4.10;;;3.70;;
3259;SDS011;22469;48.150;14.004;2023-02-05T01:10:42;4.20;;;3.90;;
3259;SDS011;22469;48.150;14.004;2023-02-05T01:13:11;4.53;;;3.93;;
3259;SDS011;22469;48.150;14.004;2023-02-05T01:15:43;4.00;;;3.30;;
3259;SDS011;22469;48.150;14.004;2023-02-05T01:18:10;3.37;;;3.20;;
3259;SDS011;22469;48.150;14.004;2023-02-05T01:20:38;3.20;;;3.00;;
3259;SDS011;22469;48.150;14.004;2023-02-05T01:23:07;3.47;;;3.27;;
3259;SDS011;22469;48.150;14.004;2023-02-05T01:25:35;4.20;;;3.90;;
3259;SDS011;22469;48.150;14.004;2023-02-05T01:28:02;3.70;;;3.40;;
3259;SDS011;22469;48.150;14.004;2023-02-05T01:30:31;3.73;;;3.43;;
3259;SDS011;22469;48.150;14.004;2023-02-05T01:32:58;3.90;;;3.67;;
3259;SDS011;22469;48.150;14.004;2023-02-05T01:35:27;3.60;;;3.40;;
3259;SDS011;22469;48.150;14.004;2023-02-05T01:37:54;3.90;;;3.60;;
3259;SDS011;22469;48.150;14.004;2023-02-05T01:40:21;3.97;;;3.67;;
3259;SDS011;22469;48.150;14.004;2023-02-05T01:42:48;3.57;;;3.37;;
3259;SDS011;22469;48.150;14.004;2023-02-05T01:47:48;4.17;;;3.87;;
3259;SDS011;22469;48.150;14.004;2023-02-05T01:50:18;4.10;;;3.80;;
3259;SDS011;22469;48.150;14.004;2023-02-05T01:53:04;3.73;;;3.43;;
3259;SDS011;22469;48.150;14.004;2023-02-05T01:55:35;3.57;;;3.17;;
3259;SDS011;22469;48.150;14.004;2023-02-05T01:58:08;4.00;;;3.80;;
3259;SDS011;22469;48.150;14.004;2023-02-05T02:00:35;4.20;;;3.90;;
3259;SDS011;22469;48.150;14.004;2023-02-05T02:03:02;4.00;;;3.67;;
3259;SDS011;22469;48.150;14.004;2023-02-05T02:05:30;3.40;;;3.10;;
3259;SDS011;22469;48.150;14.004;2023-02-05T02:07:58;3.47;;;3.23;;
3259;SDS011;22469;48.150;14.004;2023-02-05T02:10:25;2.90;;;2.80;;
3259;SDS011;22469;48.150;14.004;2023-02-05T02:12:52;3.93;;;3.47;;
3259;SDS011;22469;48.150;14.004;2023-02-05T02:15:21;3.70;;;3.50;;
3259;SDS011;22469;48.150;14.004;2023-02-05T02:17:56;4.40;;;4.00;;
3259;SDS011;22469;48.150;14.004;2023-02-05T02:20:48;3.90;;;3.63;;
3259;SDS011;22469;48.150;14.004;2023-02-05T02:24:10;4.07;;;3.73;;
3259;SDS011;22469;48.150;14.004;2023-02-05T02:29:38;5.03;;;3.43;;
3259;SDS011;22469;48.150;14.004;2023-02-05T02:35:00;5.33;;;4.80;;
3259;SDS011;22469;48.150;14.004;2023-02-05T02:40:37;5.50;;;4.13;;
3259;SDS011;22469;48.150;14.004;2023-02-05T02:43:13;4.60;;;4.30;;
3259;SDS011;22469;48.150;14.004;2023-02-05T02:45:51;5.53;;;5.03;;
3259;SDS011;22469;48.150;14.004;2023-02-05T02:48:30;5.20;;;4.80;;
3259;SDS011;22469;48.150;14.004;2023-02-05T02:51:02;5.40;;;5.00;;
3259;SDS011;22469;48.150;14.004;2023-02-05T02:53:34;4.60;;;4.20;;
3259;SDS011;22469;48.150;14.004;2023-02-05T02:56:05;4.93;;;4.40;;
3259;SDS011;22469;48.150;14.004;2023-02-05T02:58:38;5.43;;;4.83;;
3259;SDS011;22469;48.150;14.004;2023-02-05T03:01:11;4.87;;;4.53;;
3259;SDS011;22469;48.150;14.004;2023-02-05T03:03:41;5.50;;;5.10;;
3259;SDS011;22469;48.150;14.004;2023-02-05T03:06:18;5.83;;;5.33;;
3259;SDS011;22469;48.150;14.004;2023-02-05T03:11:20;5.73;;;5.20;;
3259;SDS011;22469;48.150;14.004;2023-02-05T03:13:47;6.03;;;5.53;;
3259;SDS011;22469;48.150;14.004;2023-02-05T03:16:14;5.90;;;4.80;;
3259;SDS011;22469;48.150;14.004;2023-02-05T03:18:44;5.63;;;5.20;;
3259;SDS011;22469;48.150;14.004;2023-02-05T03:21:17;6.20;;;5.43;;
3259;SDS011;22469;48.150;14.004;2023-02-05T03:23:59;5.23;;;4.83;;
3259;SDS011;22469;48.150;14.004;2023-02-05T03:28:55;6.33;;;5.73;;
3259;SDS011;22469;48.150;14.004;2023-02-05T03:34:38;6.70;;;4.80;;
3259;SDS011;22469;48.150;14.004;2023-02-05T03:43:20;6.70;;;5.60;;
3259;SDS011;22469;48.150;14.004;2023-02-05T03:49:16;5.57;;;5.10;;
3259;SDS011;22469;48.150;14.004;2023-02-05T03:57:04;6.60;;;6.10;;
3259;SDS011;22469;48.150;14.004;2023-02-05T03:59:42;6.23;;;5.73;;
3259;SDS011;22469;48.150;14.004;2023-02-05T04:02:12;6.20;;;5.60;;
3259;SDS011;22469;48.150;14.004;2023-02-05T04:04:39;8.53;;;6.30;;
3259;SDS011;22469;48.150;14.004;2023-02-05T04:07:06;6.57;;;6.07;;
3259;SDS011;22469;48.150;14.004;2023-02-05T04:09:34;6.90;;;5.67;;
3259;SDS011;22469;48.150;14.004;2023-02-05T04:12:01;7.20;;;6.50;;
3259;SDS011;22469;48.150;14.004;2023-02-05T04:14:28;7.05;;;5.70;;
3259;SDS011;22469;48.150;14.004;2023-02-05T04:16:55;6.97;;;6.37;;
3259;SDS011;22469;48.150;14.004;2023-02-05T04:19:22;6.13;;;5.70;;
3259;SDS011;22469;48.150;14.004;2023-02-05T04:21:49;7.53;;;6.50;;
3259;SDS011;22469;48.150;14.004;2023-02-05T04:24:16;8.57;;;6.37;;
3259;SDS011;22469;48.150;14.004;2023-02-05T04:26:43;5.60;;;5.10;;
3259;SDS011;22469;48.150;14.004;2023-02-05T04:29:10;6.20;;;5.27;;
3259;SDS011;22469;48.150;14.004;2023-02-05T04:31:37;6.27;;;5.47;;
3259;SDS011;22469;48.150;14.004;2023-02-05T04:34:04;5.73;;;5.33;;
3259;SDS011;22469;48.150;14.004;2023-02-05T04:36:31;7.63;;;6.00;;
3259;SDS011;22469;48.150;14.004;2023-02-05T04:38:58;8.33;;;5.07;;
3259;SDS011;22469;48.150;14.004;2023-02-05T04:41:24;5.50;;;5.03;;
3259;SDS011;22469;48.150;14.004;2023-02-05T04:43:51;5.70;;;5.30;;
3259;SDS011;22469;48.150;14.004;2023-02-05T04:46:18;7.50;;;4.63;;
3259;SDS011;22469;48.150;14.004;2023-02-05T04:48:46;6.67;;;5.97;;
3259;SDS011;22469;48.150;14.004;2023-02-05T04:51:13;6.53;;;6.00;;
3259;SDS011;22469;48.150;14.004;2023-02-05T04:53:41;6.03;;;5.53;;
3259;SDS011;22469;48.150;14.004;2023-02-05T04:56:10;6.63;;;5.90;;
3259;SDS011;22469;48.150;14.004;2023-02-05T04:58:40;6.60;;;5.93;;
3259;SDS011;22469;48.150;14.004;2023-02-05T05:01:12;6.30;;;5.67;;
3259;SDS011;22469;48.150;14.004;2023-02-05T05:03:42;5.40;;;5.00;;
3259;SDS011;22469;48.150;14.004;2023-02-05T05:06:10;5.90;;;5.17;;
3259;SDS011;22469;48.150;14.004;2023-02-05T05:08:38;9.13;;;6.07;;
3259;SDS011;22469;48.150;14.004;2023-02-05T05:11:06;6.87;;;5.80;;
3259;SDS011;22469;48.150;14.004;2023-02-05T05:13:39;6.03;;;5.53;;
3259;SDS011;22469;48.150;14.004;2023-02-05T05:16:07;7.70;;;6.17;;
3259;SDS011;22469;48.150;14.004;2023-02-05T05:18:37;6.00;;;5.50;;
3259;SDS011;22469;48.150;14.004;2023-02-05T05:21:05;6.60;;;5.87;;
3259;SDS011;22469;48.150;14.004;2023-02-05T05:23:33;5.80;;;5.30;;
3259;SDS011;22469;48.150;14.004;2023-02-05T05:26:05;6.33;;;5.83;;
3259;SDS011;22469;48.150;14.004;2023-02-05T05:28:34;6.83;;;6.00;;
3259;SDS011;22469;48.150;14.004;2023-02-05T05:31:09;8.40;;;5.33;;
3259;SDS011;22469;48.150;14.004;2023-02-05T05:33:42;5.73;;;5.10;;
3259;SDS011;22469;48.150;14.004;2023-02-05T05:36:09;5.40;;;4.90;;
3259;SDS011;22469;48.150;14.004;2023-02-05T05:38:36;5.80;;;5.33;;
3259;SDS011;22469;48.150;14.004;2023-02-05T05:41:04;6.60;;;6.00;;
3259;SDS011;22469;48.150;14.004;2023-02-05T05:43:51;6.97;;;6.33;;
3259;SDS011;22469;48.150;14.004;2023-02-05T05:46:20;6.00;;;5.50;;
3259;SDS011;22469;48.150;14.004;2023-02-05T05:48:51;6.40;;;5.80;;
3259;SDS011;22469;48.150;14.004;2023-02-05T05:51:21;5.67;;;5.17;;
3259;SDS011;22469;48.150;14.004;2023-02-05T05:53:49;6.87;;;6.27;;
3259;SDS011;22469;48.150;14.004;2023-02-05T05:56:17;5.97;;;5.37;;
3259;SDS011;22469;48.150;14.004;2023-02-05T05:58:44;7.33;;;5.60;;
3259;SDS011;22469;48.150;14.004;2023-02-05T06:01:13;5.97;;;5.30;;
3259;SDS011;22469;48.150;14.004;2023-02-05T06:03:42;6.93;;;6.23;;
3259;SDS011;22469;48.150;14.004;2023-02-05T06:06:09;6.83;;;6.23;;
3259;SDS011;22469;48.150;14.004;2023-02-05T06:08:37;6.90;;;6.07;;
3259;SDS011;22469;48.150;14.004;2023-02-05T06:11:05;7.57;;;6.87;;
3259;SDS011;22469;48.150;14.004;2023-02-05T06:13:32;7.60;;;6.83;;
3259;SDS011;22469;48.150;14.004;2023-02-05T06:16:00;7.47;;;6.90;;
3259;SDS011;22469;48.150;14.004;2023-02-05T06:18:28;6.90;;;6.30;;
3259;SDS011;22469;48.150;14.004;2023-02-05T06:20:56;6.73;;;6.07;;
3259;SDS011;22469;48.150;14.004;2023-02-05T06:23:23;7.43;;;6.07;;
3259;SDS011;22469;48.150;14.004;2023-02-05T06:25:50;9.00;;;7.10;;
3259;SDS011;22469;48.150;14.004;2023-02-05T06:28:17;6.27;;;5.70;;
3259;SDS011;22469;48.150;14.004;2023-02-05T06:30:44;8.40;;;6.70;;
3259;SDS011;22469;48.150;14.004;2023-02-05T06:33:12;8.10;;;7.30;;
3259;SDS011;22469;48.150;14.004;2023-02-05T06:35:39;8.50;;;6.23;;
3259;SDS011;22469;48.150;14.004;2023-02-05T06:38:07;7.27;;;6.57;;
3259;SDS011;22469;48.150;14.004;2023-02-05T06:40:34;7.43;;;6.10;;
3259;SDS011;22469;48.150;14.004;2023-02-05T06:43:01;9.53;;;6.77;;
3259;SDS011;22469;48.150;14.004;2023-02-05T06:45:29;7.97;;;6.57;;
3259;SDS011;22469;48.150;14.004;2023-02-05T06:47:56;8.33;;;7.53;;
3259;SDS011;22469;48.150;14.004;2023-02-05T06:50:24;11.77;;;10.53;;
3259;SDS011;22469;48.150;14.004;2023-02-05T06:52:51;10.13;;;8.60;;
3259;SDS011;22469;48.150;14.004;2023-02-05T06:55:18;9.13;;;8.10;;
3259;SDS011;22469;48.150;14.004;2023-02-05T06:57:45;13.10;;;10.20;;
3259;SDS011;22469;48.150;14.004;2023-02-05T07:00:13;9.93;;;8.93;;
3259;SDS011;22469;48.150;14.004;2023-02-05T07:02:42;11.20;;;8.80;;
3259;SDS011;22469;48.150;14.004;2023-02-05T07:05:09;9.53;;;7.80;;
3259;SDS011;22469;48.150;14.004;2023-02-05T07:07:37;11.13;;;10.03;;
3259;SDS011;22469;48.150;14.004;2023-02-05T07:10:05;11.70;;;10.00;;
3259;SDS011;22469;48.150;14.004;2023-02-05T07:12:32;13.13;;;11.10;;
3259;SDS011;22469;48.150;14.004;2023-02-05T07:14:59;12.23;;;10.90;;
3259;SDS011;22469;48.150;14.004;2023-02-05T07:17:26;16.30;;;13.57;;
3259;SDS011;22469;48.150;14.004;2023-02-05T07:19:54;17.10;;;15.30;;
3259;SDS011;22469;48.150;14.004;2023-02-05T07:22:21;16.77;;;13.23;;
3259;SDS011;22469;48.150;14.004;2023-02-05T07:24:48;15.80;;;14.07;;
3259;SDS011;22469;48.150;14.004;2023-02-05T07:27:15;16.23;;;14.57;;
3259;SDS011;22469;48.150;14.004;2023-02-05T07:29:42;12.70;;;10.87;;
3259;SDS011;22469;48.150;14.004;2023-02-05T07:32:09;16.37;;;13.73;;
3259;SDS011;22469;48.150;14.004;2023-02-05T07:34:36;15.33;;;13.03;;
3259;SDS011;22469;48.150;14.004;2023-02-05T07:37:03;14.00;;;12.60;;
3259;SDS011;22469;48.150;14.004;2023-02-05T07:39:30;14.80;;;13.20;;
3259;SDS011;22469;48.150;14.004;2023-02-05T07:41:59;12.83;;;11.63;;
3259;SDS011;22469;48.150;14.004;2023-02-05T07:44:26;11.63;;;10.40;;
3259;SDS011;22469;48.150;14.004;2023-02-05T07:46:53;14.10;;;9.67;;
3259;SDS011;22469;48.150;14.004;2023-02-05T07:49:21;11.10;;;9.93;;
3259;SDS011;22469;48.150;14.004;2023-02-05T07:51:48;14.03;;;12.23;;
3259;SDS011;22469;48.150;14.004;2023-02-05T07:54:15;12.10;;;10.77;;
3259;SDS011;22469;48.150;14.004;2023-02-05T07:56:42;12.03;;;10.30;;
3259;SDS011;22469;48.150;14.004;2023-02-05T07:59:11;11.87;;;10.67;;
3259;SDS011;22469;48.150;14.004;2023-02-05T08:01:38;11.57;;;10.47;;
3259;SDS011;22469;48.150;14.004;2023-02-05T08:04:05;11.17;;;9.80;;
3259;SDS011;22469;48.150;14.004;2023-02-05T08:06:32;11.63;;;8.47;;
3259;SDS011;22469;48.150;14.004;2023-02-05T08:09:00;8.40;;;7.60;;
3259;SDS011;22469;48.150;14.004;2023-02-05T08:11:27;8.33;;;7.43;;
3259;SDS011;22469;48.150;14.004;2023-02-05T08:13:58;9.60;;;7.77;;
3259;SDS011;22469;48.150;14.004;2023-02-05T08:16:27;7.40;;;6.80;;
3259;SDS011;22469;48.150;14.004;2023-02-05T08:18:54;9.33;;;8.43;;
3259;SDS011;22469;48.150;14.004;2023-02-05T08:21:21;9.10;;;7.77;;
3259;SDS011;22469;48.150;14.004;2023-02-05T08:23:48;7.50;;;6.90;;
3259;SDS011;22469;48.150;14.004;2023-02-05T08:26:16;8.77;;;7.77;;
3259;SDS011;22469;48.150;14.004;2023-02-05T08:28:44;7.70;;;7.00;;
3259;SDS011;22469;48.150;14.004;2023-02-05T08:31:16;7.70;;;7.10;;
3259;SDS011;22469;48.150;14.004;2023-02-05T08:33:44;7.93;;;7.23;;
3259;SDS011;22469;48.150;14.004;2023-02-05T08:36:13;9.60;;;7.43;;
3259;SDS011;22469;48.150;14.004;2023-02-05T08:38:40;7.43;;;6.77;;
3259;SDS011;22469;48.150;14.004;2023-02-05T08:41:08;8.53;;;7.57;;
3259;SDS011;22469;48.150;14.004;2023-02-05T08:43:40;7.20;;;6.60;;
3259;SDS011;22469;48.150;14.004;2023-02-05T08:46:11;7.13;;;6.43;;
3259;SDS011;22469;48.150;14.004;2023-02-05T08:48:41;7.10;;;6.60;;
3259;SDS011;22469;48.150;14.004;2023-02-05T08:51:09;5.90;;;5.40;;
3259;SDS011;22469;48.150;14.004;2023-02-05T08:53:39;7.80;;;7.00;;
3259;SDS011;22469;48.150;14.004;2023-02-05T08:56:06;5.27;;;4.87;;
3259;SDS011;22469;48.150;14.004;2023-02-05T08:58:36;7.40;;;6.70;;
3259;SDS011;22469;48.150;14.004;2023-02-05T09:01:06;6.73;;;6.23;;
3259;SDS011;22469;48.150;14.004;2023-02-05T09:03:43;6.00;;;5.40;;
3259;SDS011;22469;48.150;14.004;2023-02-05T09:06:12;5.57;;;4.90;;
3259;SDS011;22469;48.150;14.004;2023-02-05T09:08:41;5.80;;;5.30;;
3259;SDS011;22469;48.150;14.004;2023-02-05T09:11:08;6.53;;;6.00;;
3259;SDS011;22469;48.150;14.004;2023-02-05T09:13:39;6.60;;;6.10;;
3259;SDS011;22469;48.150;14.004;2023-02-05T09:16:08;6.10;;;5.70;;
3259;SDS011;22469;48.150;14.004;2023-02-05T09:18:36;7.27;;;6.60;;
3259;SDS011;22469;48.150;14.004;2023-02-05T09:21:07;6.37;;;5.83;;
3259;SDS011;22469;48.150;14.004;2023-02-05T09:23:36;6.57;;;6.00;;
3259;SDS011;22469;48.150;14.004;2023-02-05T09:26:03;6.30;;;5.80;;
3259;SDS011;22469;48.150;14.004;2023-02-05T09:28:31;8.33;;;6.50;;
3259;SDS011;22469;48.150;14.004;2023-02-05T09:31:03;6.97;;;6.40;;
3259;SDS011;22469;48.150;14.004;2023-02-05T09:33:38;6.43;;;5.93;;
3259;SDS011;22469;48.150;14.004;2023-02-05T09:38:42;7.03;;;6.43;;
3259;SDS011;22469;48.150;14.004;2023-02-05T09:46:24;7.70;;;6.57;;
3259;SDS011;22469;48.150;14.004;2023-02-05T09:49:26;7.13;;;6.50;;
3259;SDS011;22469;48.150;14.004;2023-02-05T09:52:01;6.43;;;5.93;;
3259;SDS011;22469;48.150;14.004;2023-02-05T09:54:54;5.43;;;5.13;;
3259;SDS011;22469;48.150;14.004;2023-02-05T09:57:46;6.30;;;5.80;;
3259;SDS011;22469;48.150;14.004;2023-02-05T10:00:23;6.10;;;5.67;;
3259;SDS011;22469;48.150;14.004;2023-02-05T10:09:03;6.20;;;5.70;;
3259;SDS011;22469;48.150;14.004;2023-02-05T10:18:12;6.50;;;5.90;;
3259;SDS011;22469;48.150;14.004;2023-02-05T10:21:00;5.87;;;5.37;;
3259;SDS011;22469;48.150;14.004;2023-02-05T10:26:43;6.70;;;6.10;;
3259;SDS011;22469;48.150;14.004;2023-02-05T10:29:24;6.13;;;5.53;;
3259;SDS011;22469;48.150;14.004;2023-02-05T10:32:20;5.03;;;4.73;;
3259;SDS011;22469;48.150;14.004;2023-02-05T10:37:54;4.83;;;3.50;;
3259;SDS011;22469;48.150;14.004;2023-02-05T10:40:24;4.30;;;4.00;;
3259;SDS011;22469;48.150;14.004;2023-02-05T10:45:47;3.90;;;3.60;;
3259;SDS011;22469;48.150;14.004;2023-02-05T10:50:50;4.53;;;4.23;;
3259;SDS011;22469;48.150;14.004;2023-02-05T10:53:28;3.57;;;3.33;;
3259;SDS011;22469;48.150;14.004;2023-02-05T10:55:57;4.27;;;3.90;;
3259;SDS011;22469;48.150;14.004;2023-02-05T11:06:16;6.40;;;3.70;;
3259;SDS011;22469;48.150;14.004;2023-02-05T11:08:46;3.70;;;3.50;;
3259;SDS011;22469;48.150;14.004;2023-02-05T11:11:24;3.90;;;3.70;;
3259;SDS011;22469;48.150;14.004;2023-02-05T11:14:03;4.30;;;3.97;;
3259;SDS011;22469;48.150;14.004;2023-02-05T11:16:36;3.97;;;3.73;;
3259;SDS011;22469;48.150;14.004;2023-02-05T11:19:16;5.77;;;5.10;;
3259;SDS011;22469;48.150;14.004;2023-02-05T11:21:51;5.00;;;4.70;;
3259;SDS011;22469;48.150;14.004;2023-02-05T11:29:57;5.80;;;5.27;;
3259;SDS011;22469;48.150;14.004;2023-02-05T11:38:25;4.80;;;4.40;;
3259;SDS011;22469;48.150;14.004;2023-02-05T11:40:56;4.23;;;4.03;;
3259;SDS011;22469;48.150;14.004;2023-02-05T11:43:31;4.57;;;4.17;;
3259;SDS011;22469;48.150;14.004;2023-02-05T11:46:01;4.07;;;3.77;;
3259;SDS011;22469;48.150;14.004;2023-02-05T11:48:40;4.07;;;3.80;;
3259;SDS011;22469;48.150;14.004;2023-02-05T11:54:02;5.70;;;5.20;;
3259;SDS011;22469;48.150;14.004;2023-02-05T11:57:22;23.50;;;13.03;;
3259;SDS011;22469;48.150;14.004;2023-02-05T11:59:54;4.03;;;3.77;;
3259;SDS011;22469;48.150;14.004;2023-02-05T12:02:35;3.40;;;3.20;;
3259;SDS011;22469;48.150;14.004;2023-02-05T12:10:17;4.10;;;3.87;;
3259;SDS011;22469;48.150;14.004;2023-02-05T12:13:05;3.70;;;3.50;;
3259;SDS011;22469;48.150;14.004;2023-02-05T12:21:38;3.77;;;3.60;;
3259;SDS011;22469;48.150;14.004;2023-02-05T12:30:24;4.50;;;3.77;;
3259;SDS011;22469;48.150;14.004;2023-02-05T12:33:40;3.70;;;3.50;;
3259;SDS011;22469;48.150;14.004;2023-02-05T12:42:14;4.83;;;4.43;;
3259;SDS011;22469;48.150;14.004;2023-02-05T12:45:01;5.80;;;5.33;;
3259;SDS011;22469;48.150;14.004;2023-02-05T12:53:52;4.50;;;4.20;;
3259;SDS011;22469;48.150;14.004;2023-02-05T13:02:31;5.00;;;4.70;;
3259;SDS011;22469;48.150;14.004;2023-02-05T13:05:17;4.37;;;4.07;;
3259;SDS011;22469;48.150;14.004;2023-02-05T13:16:39;3.60;;;3.30;;
3259;SDS011;22469;48.150;14.004;2023-02-05T13:31:23;3.47;;;3.27;;
3259;SDS011;22469;48.150;14.004;2023-02-05T13:34:00;4.50;;;4.20;;
3259;SDS011;22469;48.150;14.004;2023-02-05T13:54:00;4.43;;;4.13;;
3259;SDS011;22469;48.150;14.004;2023-02-05T13:59:43;4.50;;;4.20;;
3259;SDS011;22469;48.150;14.004;2023-02-05T14:02:26;5.80;;;5.30;;
3259;SDS011;22469;48.150;14.004;2023-02-05T14:05:06;5.37;;;5.07;;
3259;SDS011;22469;48.150;14.004;2023-02-05T14:07:41;4.97;;;4.63;;
3259;SDS011;22469;48.150;14.004;2023-02-05T14:10:24;5.23;;;4.37;;
3259;SDS011;22469;48.150;14.004;2023-02-05T14:15:50;4.00;;;3.80;;
3259;SDS011;22469;48.150;14.004;2023-02-05T14:23:58;3.70;;;3.50;;
3259;SDS011;22469;48.150;14.004;2023-02-05T14:26:48;4.17;;;3.87;;
3259;SDS011;22469;48.150;14.004;2023-02-05T14:38:01;4.13;;;3.80;;
3259;SDS011;22469;48.150;14.004;2023-02-05T14:41:21;3.83;;;3.50;;
3259;SDS011;22469;48.150;14.004;2023-02-05T14:46:28;4.83;;;4.43;;
3259;SDS011;22469;48.150;14.004;2023-02-05T14:51:59;4.30;;;4.10;;
3259;SDS011;22469;48.150;14.004;2023-02-05T14:54:29;5.17;;;4.67;;
3259;SDS011;22469;48.150;14.004;2023-02-05T14:57:17;4.43;;;4.03;;
3259;SDS011;22469;48.150;14.004;2023-02-05T15:02:52;4.03;;;3.83;;
3259;SDS011;22469;48.150;14.004;2023-02-05T15:05:51;4.60;;;4.30;;
3259;SDS011;22469;48.150;14.004;2023-02-05T15:08:54;5.23;;;4.83;;
3259;SDS011;22469;48.150;14.004;2023-02-05T15:19:32;4.83;;;4.43;;
3259;SDS011;22469;48.150;14.004;2023-02-05T15:22:24;7.10;;;5.63;;
3259;SDS011;22469;48.150;14.004;2023-02-05T15:24:51;7.60;;;6.50;;
3259;SDS011;22469;48.150;14.004;2023-02-05T15:27:21;7.20;;;6.50;;
3259;SDS011;22469;48.150;14.004;2023-02-05T15:30:04;7.33;;;6.63;;
3259;SDS011;22469;48.150;14.004;2023-02-05T15:32:38;7.70;;;6.90;;
3259;SDS011;22469;48.150;14.004;2023-02-05T15:35:19;7.80;;;7.20;;
3259;SDS011;22469;48.150;14.004;2023-02-05T15:37:51;6.40;;;5.90;;
3259;SDS011;22469;48.150;14.004;2023-02-05T15:40:25;7.10;;;6.20;;
3259;SDS011;22469;48.150;14.004;2023-02-05T15:42:59;6.30;;;5.70;;
3259;SDS011;22469;48.150;14.004;2023-02-05T15:45:41;11.20;;;8.07;;
3259;SDS011;22469;48.150;14.004;2023-02-05T15:56:11;11.50;;;8.77;;
3259;SDS011;22469;48.150;14.004;2023-02-05T15:58:51;9.17;;;7.90;;
3259;SDS011;22469;48.150;14.004;2023-02-05T16:01:30;8.33;;;7.37;;
3259;SDS011;22469;48.150;14.004;2023-02-05T16:04:00;9.20;;;8.30;;
3259;SDS011;22469;48.150;14.004;2023-02-05T16:06:28;17.97;;;12.20;;
3259;SDS011;22469;48.150;14.004;2023-02-05T16:08:56;16.03;;;11.80;;
3259;SDS011;22469;48.150;14.004;2023-02-05T16:11:27;17.77;;;10.90;;
3259;SDS011;22469;48.150;14.004;2023-02-05T16:14:31;16.57;;;11.17;;
3259;SDS011;22469;48.150;14.004;2023-02-05T16:17:02;19.63;;;12.37;;
3259;SDS011;22469;48.150;14.004;2023-02-05T16:22:48;14.60;;;11.30;;
3259;SDS011;22469;48.150;14.004;2023-02-05T16:28:14;9.10;;;7.60;;
3259;SDS011;22469;48.150;14.004;2023-02-05T16:30:51;8.73;;;7.93;;
3259;SDS011;22469;48.150;14.004;2023-02-05T16:36:04;10.40;;;7.70;;
3259;SDS011;22469;48.150;14.004;2023-02-05T16:38:54;9.87;;;8.87;;
3259;SDS011;22469;48.150;14.004;2023-02-05T16:41:49;14.23;;;8.70;;
3259;SDS011;22469;48.150;14.004;2023-02-05T16:44:31;9.00;;;7.83;;
3259;SDS011;22469;48.150;14.004;2023-02-05T16:47:15;9.63;;;7.30;;
3259;SDS011;22469;48.150;14.004;2023-02-05T16:49:45;8.03;;;6.77;;
3259;SDS011;22469;48.150;14.004;2023-02-05T16:52:31;8.73;;;7.83;;
3259;SDS011;22469;48.150;14.004;2023-02-05T16:55:37;8.67;;;7.80;;
3259;SDS011;22469;48.150;14.004;2023-02-05T16:57:54;9.60;;;8.23;;
3259;SDS011;22469;48.150;14.004;2023-02-05T17:00:29;22.70;;;15.97;;
3259;SDS011;22469;48.150;14.004;2023-02-05T17:02:57;27.53;;;15.20;;
3259;SDS011;22469;48.150;14.004;2023-02-05T17:05:33;28.33;;;15.83;;
3259;SDS011;22469;48.150;14.004;2023-02-05T17:08:05;15.07;;;11.27;;
3259;SDS011;22469;48.150;14.004;2023-02-05T17:10:48;13.93;;;7.23;;
3259;SDS011;22469;48.150;14.004;2023-02-05T17:13:49;8.30;;;7.50;;
3259;SDS011;22469;48.150;14.004;2023-02-05T17:16:25;8.67;;;7.77;;
3259;SDS011;22469;48.150;14.004;2023-02-05T17:18:58;9.10;;;8.27;;
3259;SDS011;22469;48.150;14.004;2023-02-05T17:21:30;84.27;;;33.87;;
3259;SDS011;22469;48.150;14.004;2023-02-05T17:24:02;55.47;;;31.87;;
3259;SDS011;22469;48.150;14.004;2023-02-05T17:26:36;78.73;;;40.63;;
3259;SDS011;22469;48.150;14.004;2023-02-05T17:29:12;38.33;;;27.40;;
3259;SDS011;22469;48.150;14.004;2023-02-05T17:31:41;24.37;;;19.63;;
3259;SDS011;22469;48.150;14.004;2023-02-05T17:34:08;28.00;;;17.90;;
3259;SDS011;22469;48.150;14.004;2023-02-05T17:36:36;33.83;;;23.30;;
3259;SDS011;22469;48.150;14.004;2023-02-05T17:39:02;48.70;;;31.50;;
3259;SDS011;22469;48.150;14.004;2023-02-05T17:41:31;47.97;;;30.97;;
3259;SDS011;22469;48.150;14.004;2023-02-05T17:44:20;49.10;;;32.97;;
3259;SDS011;22469;48.150;14.004;2023-02-05T17:46:48;47.33;;;30.23;;
3259;SDS011;22469;48.150;14.004;2023-02-05T17:49:15;37.57;;;29.00;;
3259;SDS011;22469;48.150;14.004;2023-02-05T17:51:42;30.23;;;22.70;;
3259;SDS011;22469;48.150;14.004;2023-02-05T17:54:10;33.30;;;22.00;;
3259;SDS011;22469;48.150;14.004;2023-02-05T17:56:43;26.80;;;22.10;;
3259;SDS011;22469;48.150;14.004;2023-02-05T17:59:14;27.33;;;21.20;;
3259;SDS011;22469;48.150;14.004;2023-02-05T18:01:47;27.70;;;21.03;;
3259;SDS011;22469;48.150;14.004;2023-02-05T18:04:16;32.60;;;17.97;;
3259;SDS011;22469;48.150;14.004;2023-02-05T18:06:44;32.10;;;20.53;;
3259;SDS011;22469;48.150;14.004;2023-02-05T18:09:13;30.23;;;18.60;;
3259;SDS011;22469;48.150;14.004;2023-02-05T18:11:41;23.60;;;16.53;;
3259;SDS011;22469;48.150;14.004;2023-02-05T18:14:08;28.73;;;18.17;;
3259;SDS011;22469;48.150;14.004;2023-02-05T18:16:36;22.13;;;16.20;;
3259;SDS011;22469;48.150;14.004;2023-02-05T18:19:03;23.70;;;16.40;;
3259;SDS011;22469;48.150;14.004;2023-02-05T18:21:31;23.43;;;16.10;;
3259;SDS011;22469;48.150;14.004;2023-02-05T18:23:58;19.37;;;14.90;;
3259;SDS011;22469;48.150;14.004;2023-02-05T18:26:25;27.83;;;14.30;;
3259;SDS011;22469;48.150;14.004;2023-02-05T18:28:52;15.70;;;13.30;;
3259;SDS011;22469;48.150;14.004;2023-02-05T18:31:20;23.23;;;15.27;;
3259;SDS011;22469;48.150;14.004;2023-02-05T18:33:47;19.40;;;12.83;;
3259;SDS011;22469;48.150;14.004;2023-02-05T18:36:17;17.97;;;12.60;;
3259;SDS011;22469;48.150;14.004;2023-02-05T18:38:44;16.70;;;12.93;;
3259;SDS011;22469;48.150;14.004;2023-02-05T18:41:18;18.70;;;15.30;;
3259;SDS011;22469;48.150;14.004;2023-02-05T18:43:54;18.60;;;15.03;;
3259;SDS011;22469;48.150;14.004;2023-02-05T18:46:22;26.47;;;15.43;;
3259;SDS011;22469;48.150;14.004;2023-02-05T18:48:50;20.90;;;16.30;;